sensor_id;sensor_type;location;lat;lon;timestamp;P1;durP1;ratioP1;P2;durP2;ratioP2
51184;SDS011;37248;59.350;18.050;2023-02-23T00:00:54;2.75;;;2.08;;
51184;SDS011;37248;59.350;18.050;2023-02-23T00:03:19;2.03;;;1.80;;
51184;SDS011;37248;59.350;18.050;2023-02-23T00:05:44;2.60;;;2.00;;
51184;SDS011;37248;59.350;18.050;2023-02-23T00:08:10;3.10;;;2.00;;
51184;SDS011;37248;59.350;18.050;2023-02-23T00:10:35;3.60;;;2.10;;
51184;SDS011;37248;59.350;18.050;2023-02-23T00:13:00;3.27;;;1.93;;
51184;SDS011;37248;59.350;18.050;2023-02-23T00:15:26;2.47;;;1.93;;
51184;SDS011;37248;59.350;18.050;2023-02-23T00:17:52;4.03;;;1.80;;
51184;SDS011;37248;59.350;18.050;2023-02-23T00:20:18;2.50;;;1.92;;
51184;SDS011;37248;59.350;18.050;2023-02-23T00:22:50;2.45;;;1.60;;
51184;SDS011;37248;59.350;18.050;2023-02-23T00:25:16;2.95;;;1.90;;
51184;SDS011;37248;59.350;18.050;2023-02-23T00:27:42;2.95;;;1.85;;
51184;SDS011;37248;59.350;18.050;2023-02-23T00:30:09;2.83;;;2.08;;
51184;SDS011;37248;59.350;18.050;2023-02-23T00:32:35;1.98;;;1.60;;
51184;SDS011;37248;59.350;18.050;2023-02-23T00:35:00;2.67;;;1.90;;
51184;SDS011;37248;59.350;18.050;2023-02-23T00:37:26;3.33;;;1.55;;
51184;SDS011;37248;59.350;18.050;2023-02-23T00:39:53;4.32;;;1.60;;
51184;SDS011;37248;59.350;18.050;2023-02-23T00:42:20;3.07;;;1.90;;
51184;SDS011;37248;59.350;18.050;2023-02-23T00:44:45;2.30;;;1.70;;
51184;SDS011;37248;59.350;18.050;2023-02-23T00:47:12;3.10;;;1.70;;
51184;SDS011;37248;59.350;18.050;2023-02-23T00:49:38;3.20;;;1.60;;
51184;SDS011;37248;59.350;18.050;2023-02-23T00:52:03;2.28;;;1.88;;
51184;SDS011;37248;59.350;18.050;2023-02-23T00:54:29;5.13;;;1.70;;
51184;SDS011;37248;59.350;18.050;2023-02-23T00:56:54;1.70;;;1.43;;
51184;SDS011;37248;59.350;18.050;2023-02-23T00:59:19;2.77;;;1.60;;
51184;SDS011;37248;59.350;18.050;2023-02-23T01:01:45;2.30;;;1.60;;
51184;SDS011;37248;59.350;18.050;2023-02-23T01:04:11;2.03;;;1.60;;
51184;SDS011;37248;59.350;18.050;2023-02-23T01:06:37;2.30;;;1.58;;
51184;SDS011;37248;59.350;18.050;2023-02-23T01:09:05;1.77;;;1.60;;
51184;SDS011;37248;59.350;18.050;2023-02-23T01:11:31;2.63;;;1.73;;
51184;SDS011;37248;59.350;18.050;2023-02-23T01:13:56;1.60;;;1.50;;
51184;SDS011;37248;59.350;18.050;2023-02-23T01:16:23;1.90;;;1.57;;
51184;SDS011;37248;59.350;18.050;2023-02-23T01:18:53;1.77;;;1.30;;
51184;SDS011;37248;59.350;18.050;2023-02-23T01:21:20;2.85;;;1.70;;
51184;SDS011;37248;59.350;18.050;2023-02-23T01:23:45;1.73;;;1.60;;
51184;SDS011;37248;59.350;18.050;2023-02-23T01:26:15;2.40;;;1.70;;
51184;SDS011;37248;59.350;18.050;2023-02-23T01:28:40;2.05;;;1.70;;
51184;SDS011;37248;59.350;18.050;2023-02-23T01:31:08;2.50;;;1.77;;
51184;SDS011;37248;59.350;18.050;2023-02-23T01:33:34;2.45;;;1.65;;
51184;SDS011;37248;59.350;18.050;2023-02-23T01:35:59;2.60;;;1.60;;
51184;SDS011;37248;59.350;18.050;2023-02-23T01:38:24;1.50;;;1.40;;
51184;SDS011;37248;59.350;18.050;2023-02-23T01:40:50;4.90;;;1.50;;
51184;SDS011;37248;59.350;18.050;2023-02-23T01:43:16;2.17;;;1.23;;
51184;SDS011;37248;59.350;18.050;2023-02-23T01:45:43;3.13;;;1.63;;
51184;SDS011;37248;59.350;18.050;2023-02-23T01:48:12;1.77;;;1.33;;
51184;SDS011;37248;59.350;18.050;2023-02-23T01:53:09;5.00;;;1.48;;
51184;SDS011;37248;59.350;18.050;2023-02-23T01:55:35;4.00;;;1.40;;
51184;SDS011;37248;59.350;18.050;2023-02-23T01:58:03;3.65;;;1.70;;
51184;SDS011;37248;59.350;18.050;2023-02-23T02:00:29;6.32;;;1.60;;
51184;SDS011;37248;59.350;18.050;2023-02-23T02:02:57;4.35;;;1.50;;
51184;SDS011;37248;59.350;18.050;2023-02-23T02:05:23;3.53;;;1.52;;
51184;SDS011;37248;59.350;18.050;2023-02-23T02:07:49;5.10;;;1.50;;
51184;SDS011;37248;59.350;18.050;2023-02-23T02:10:23;4.72;;;1.40;;
51184;SDS011;37248;59.350;18.050;2023-02-23T02:13:03;2.33;;;1.40;;
51184;SDS011;37248;59.350;18.050;2023-02-23T02:15:31;4.65;;;1.40;;
51184;SDS011;37248;59.350;18.050;2023-02-23T02:23:13;4.63;;;1.33;;
51184;SDS011;37248;59.350;18.050;2023-02-23T02:46:22;1.80;;;1.00;;
51184;SDS011;37248;59.350;18.050;2023-02-23T02:48:58;2.30;;;1.08;;
51184;SDS011;37248;59.350;18.050;2023-02-23T02:51:26;2.65;;;1.52;;
51184;SDS011;37248;59.350;18.050;2023-02-23T02:56:30;1.80;;;1.25;;
51184;SDS011;37248;59.350;18.050;2023-02-23T02:58:57;1.40;;;1.02;;
51184;SDS011;37248;59.350;18.050;2023-02-23T03:01:23;2.75;;;1.10;;
51184;SDS011;37248;59.350;18.050;2023-02-23T03:04:21;4.60;;;1.20;;
51184;SDS011;37248;59.350;18.050;2023-02-23T03:07:15;1.70;;;1.10;;
51184;SDS011;37248;59.350;18.050;2023-02-23T03:10:07;2.08;;;1.30;;
51184;SDS011;37248;59.350;18.050;2023-02-23T03:21:57;1.52;;;0.90;;
51184;SDS011;37248;59.350;18.050;2023-02-23T03:27:00;1.70;;;0.90;;
51184;SDS011;37248;59.350;18.050;2023-02-23T03:29:48;1.50;;;1.10;;
51184;SDS011;37248;59.350;18.050;2023-02-23T03:32:36;1.90;;;1.10;;
51184;SDS011;37248;59.350;18.050;2023-02-23T03:40:53;1.85;;;1.15;;
51184;SDS011;37248;59.350;18.050;2023-02-23T03:43:38;1.75;;;0.93;;
51184;SDS011;37248;59.350;18.050;2023-02-23T03:46:24;1.35;;;1.00;;
51184;SDS011;37248;59.350;18.050;2023-02-23T03:49:09;1.83;;;1.05;;
51184;SDS011;37248;59.350;18.050;2023-02-23T03:52:02;1.13;;;0.90;;
51184;SDS011;37248;59.350;18.050;2023-02-23T03:54:48;1.20;;;0.93;;
51184;SDS011;37248;59.350;18.050;2023-02-23T03:57:35;2.22;;;1.05;;
51184;SDS011;37248;59.350;18.050;2023-02-23T04:00:28;2.70;;;1.10;;
51184;SDS011;37248;59.350;18.050;2023-02-23T04:03:13;1.53;;;1.00;;
51184;SDS011;37248;59.350;18.050;2023-02-23T04:05:58;1.38;;;0.90;;
51184;SDS011;37248;59.350;18.050;2023-02-23T04:08:43;2.90;;;0.80;;
51184;SDS011;37248;59.350;18.050;2023-02-23T04:11:32;0.98;;;0.75;;
51184;SDS011;37248;59.350;18.050;2023-02-23T04:14:25;2.50;;;0.82;;
51184;SDS011;37248;59.350;18.050;2023-02-23T04:16:52;1.95;;;0.90;;
51184;SDS011;37248;59.350;18.050;2023-02-23T04:19:18;2.10;;;1.00;;
51184;SDS011;37248;59.350;18.050;2023-02-23T04:21:43;1.80;;;1.03;;
51184;SDS011;37248;59.350;18.050;2023-02-23T04:24:09;1.93;;;1.20;;
51184;SDS011;37248;59.350;18.050;2023-02-23T04:26:34;1.50;;;1.10;;
51184;SDS011;37248;59.350;18.050;2023-02-23T04:28:59;1.60;;;0.90;;
51184;SDS011;37248;59.350;18.050;2023-02-23T04:31:25;3.60;;;0.90;;
51184;SDS011;37248;59.350;18.050;2023-02-23T04:33:50;3.33;;;1.00;;
51184;SDS011;37248;59.350;18.050;2023-02-23T04:36:15;2.40;;;0.90;;
51184;SDS011;37248;59.350;18.050;2023-02-23T04:38:41;2.67;;;1.00;;
51184;SDS011;37248;59.350;18.050;2023-02-23T04:41:06;2.33;;;1.08;;
51184;SDS011;37248;59.350;18.050;2023-02-23T04:43:31;5.40;;;1.00;;
51184;SDS011;37248;59.350;18.050;2023-02-23T04:45:57;4.13;;;1.10;;
51184;SDS011;37248;59.350;18.050;2023-02-23T04:48:22;2.43;;;1.13;;
51184;SDS011;37248;59.350;18.050;2023-02-23T04:50:50;5.65;;;0.98;;
51184;SDS011;37248;59.350;18.050;2023-02-23T04:53:16;4.30;;;1.13;;
51184;SDS011;37248;59.350;18.050;2023-02-23T04:55:41;3.20;;;1.30;;
51184;SDS011;37248;59.350;18.050;2023-02-23T04:58:07;7.23;;;1.30;;
51184;SDS011;37248;59.350;18.050;2023-02-23T05:00:37;8.70;;;1.08;;
51184;SDS011;37248;59.350;18.050;2023-02-23T05:03:04;4.13;;;1.00;;
51184;SDS011;37248;59.350;18.050;2023-02-23T05:05:29;6.03;;;1.27;;
51184;SDS011;37248;59.350;18.050;2023-02-23T05:07:54;6.45;;;1.35;;
51184;SDS011;37248;59.350;18.050;2023-02-23T05:10:20;8.07;;;1.13;;
51184;SDS011;37248;59.350;18.050;2023-02-23T05:12:45;6.40;;;1.10;;
51184;SDS011;37248;59.350;18.050;2023-02-23T05:15:11;4.95;;;1.20;;
51184;SDS011;37248;59.350;18.050;2023-02-23T05:17:37;2.55;;;0.90;;
51184;SDS011;37248;59.350;18.050;2023-02-23T05:20:02;3.47;;;1.40;;
51184;SDS011;37248;59.350;18.050;2023-02-23T05:22:27;4.13;;;1.30;;
51184;SDS011;37248;59.350;18.050;2023-02-23T05:24:52;2.20;;;0.97;;
51184;SDS011;37248;59.350;18.050;2023-02-23T05:27:18;3.80;;;0.98;;
51184;SDS011;37248;59.350;18.050;2023-02-23T05:29:43;6.17;;;1.20;;
51184;SDS011;37248;59.350;18.050;2023-02-23T05:32:08;4.13;;;0.97;;
51184;SDS011;37248;59.350;18.050;2023-02-23T05:34:34;2.17;;;1.10;;
51184;SDS011;37248;59.350;18.050;2023-02-23T05:36:59;4.20;;;1.17;;
51184;SDS011;37248;59.350;18.050;2023-02-23T05:39:24;3.70;;;1.00;;
51184;SDS011;37248;59.350;18.050;2023-02-23T05:41:50;3.30;;;1.20;;
51184;SDS011;37248;59.350;18.050;2023-02-23T05:44:15;3.03;;;0.90;;
51184;SDS011;37248;59.350;18.050;2023-02-23T05:46:40;2.00;;;0.85;;
51184;SDS011;37248;59.350;18.050;2023-02-23T05:49:05;3.30;;;0.90;;
51184;SDS011;37248;59.350;18.050;2023-02-23T05:51:32;3.30;;;0.90;;
51184;SDS011;37248;59.350;18.050;2023-02-23T05:53:57;2.50;;;0.90;;
51184;SDS011;37248;59.350;18.050;2023-02-23T05:56:23;6.90;;;1.00;;
51184;SDS011;37248;59.350;18.050;2023-02-23T05:58:49;2.15;;;0.90;;
51184;SDS011;37248;59.350;18.050;2023-02-23T06:01:14;5.88;;;1.08;;
51184;SDS011;37248;59.350;18.050;2023-02-23T06:03:40;10.23;;;1.20;;
51184;SDS011;37248;59.350;18.050;2023-02-23T06:06:05;7.93;;;1.27;;
51184;SDS011;37248;59.350;18.050;2023-02-23T06:08:31;5.28;;;1.30;;
51184;SDS011;37248;59.350;18.050;2023-02-23T06:10:57;7.63;;;1.40;;
51184;SDS011;37248;59.350;18.050;2023-02-23T06:13:22;8.00;;;1.50;;
51184;SDS011;37248;59.350;18.050;2023-02-23T06:15:47;12.03;;;1.60;;
51184;SDS011;37248;59.350;18.050;2023-02-23T06:18:13;7.22;;;1.48;;
51184;SDS011;37248;59.350;18.050;2023-02-23T06:20:38;6.13;;;1.20;;
51184;SDS011;37248;59.350;18.050;2023-02-23T06:23:04;8.80;;;1.47;;
51184;SDS011;37248;59.350;18.050;2023-02-23T06:25:29;16.33;;;1.33;;
51184;SDS011;37248;59.350;18.050;2023-02-23T06:27:55;8.23;;;1.23;;
51184;SDS011;37248;59.350;18.050;2023-02-23T06:30:20;5.15;;;1.10;;
51184;SDS011;37248;59.350;18.050;2023-02-23T06:32:46;5.03;;;1.30;;
51184;SDS011;37248;59.350;18.050;2023-02-23T06:35:12;4.03;;;1.23;;
51184;SDS011;37248;59.350;18.050;2023-02-23T06:37:37;7.90;;;1.55;;
51184;SDS011;37248;59.350;18.050;2023-02-23T06:40:03;3.43;;;1.37;;
51184;SDS011;37248;59.350;18.050;2023-02-23T06:42:28;3.27;;;1.30;;
51184;SDS011;37248;59.350;18.050;2023-02-23T06:44:54;5.00;;;1.03;;
51184;SDS011;37248;59.350;18.050;2023-02-23T06:47:19;5.37;;;1.37;;
51184;SDS011;37248;59.350;18.050;2023-02-23T06:49:44;4.73;;;1.17;;
51184;SDS011;37248;59.350;18.050;2023-02-23T06:52:10;4.43;;;1.10;;
51184;SDS011;37248;59.350;18.050;2023-02-23T06:54:37;6.82;;;1.20;;
51184;SDS011;37248;59.350;18.050;2023-02-23T06:57:04;8.32;;;1.40;;
51184;SDS011;37248;59.350;18.050;2023-02-23T06:59:29;5.88;;;1.30;;
51184;SDS011;37248;59.350;18.050;2023-02-23T07:01:54;5.40;;;1.20;;
51184;SDS011;37248;59.350;18.050;2023-02-23T07:04:20;3.70;;;1.17;;
51184;SDS011;37248;59.350;18.050;2023-02-23T07:06:45;2.83;;;1.20;;
51184;SDS011;37248;59.350;18.050;2023-02-23T07:09:10;5.30;;;1.20;;
51184;SDS011;37248;59.350;18.050;2023-02-23T07:11:35;13.57;;;1.40;;
51184;SDS011;37248;59.350;18.050;2023-02-23T07:14:01;3.13;;;1.17;;
51184;SDS011;37248;59.350;18.050;2023-02-23T07:16:27;7.65;;;1.52;;
51184;SDS011;37248;59.350;18.050;2023-02-23T07:18:55;9.73;;;1.92;;
51184;SDS011;37248;59.350;18.050;2023-02-23T07:21:20;14.38;;;1.73;;
51184;SDS011;37248;59.350;18.050;2023-02-23T07:23:46;8.53;;;1.53;;
51184;SDS011;37248;59.350;18.050;2023-02-23T07:26:15;7.10;;;1.75;;
51184;SDS011;37248;59.350;18.050;2023-02-23T07:28:41;5.63;;;1.57;;
51184;SDS011;37248;59.350;18.050;2023-02-23T07:31:06;8.40;;;1.90;;
51184;SDS011;37248;59.350;18.050;2023-02-23T07:33:32;6.13;;;1.90;;
51184;SDS011;37248;59.350;18.050;2023-02-23T07:35:57;3.03;;;1.60;;
51184;SDS011;37248;59.350;18.050;2023-02-23T07:38:22;8.40;;;2.00;;
51184;SDS011;37248;59.350;18.050;2023-02-23T07:40:50;6.27;;;1.77;;
51184;SDS011;37248;59.350;18.050;2023-02-23T07:43:16;5.18;;;1.73;;
51184;SDS011;37248;59.350;18.050;2023-02-23T07:45:41;4.22;;;1.60;;
51184;SDS011;37248;59.350;18.050;2023-02-23T07:48:07;3.30;;;1.52;;
51184;SDS011;37248;59.350;18.050;2023-02-23T07:50:32;4.80;;;1.70;;
51184;SDS011;37248;59.350;18.050;2023-02-23T07:52:57;8.00;;;1.67;;
51184;SDS011;37248;59.350;18.050;2023-02-23T07:55:23;6.18;;;1.83;;
51184;SDS011;37248;59.350;18.050;2023-02-23T07:57:49;2.95;;;1.55;;
51184;SDS011;37248;59.350;18.050;2023-02-23T08:00:14;3.13;;;1.60;;
51184;SDS011;37248;59.350;18.050;2023-02-23T08:02:39;3.97;;;1.48;;
51184;SDS011;37248;59.350;18.050;2023-02-23T08:05:05;9.23;;;1.83;;
51184;SDS011;37248;59.350;18.050;2023-02-23T08:07:30;2.53;;;1.53;;
51184;SDS011;37248;59.350;18.050;2023-02-23T08:09:56;3.35;;;1.40;;
51184;SDS011;37248;59.350;18.050;2023-02-23T08:12:21;5.73;;;2.23;;
51184;SDS011;37248;59.350;18.050;2023-02-23T08:14:46;5.20;;;2.00;;
51184;SDS011;37248;59.350;18.050;2023-02-23T08:17:11;5.47;;;1.70;;
51184;SDS011;37248;59.350;18.050;2023-02-23T08:19:37;4.20;;;1.80;;
51184;SDS011;37248;59.350;18.050;2023-02-23T08:22:03;4.70;;;1.90;;
51184;SDS011;37248;59.350;18.050;2023-02-23T08:24:28;3.88;;;2.00;;
51184;SDS011;37248;59.350;18.050;2023-02-23T08:26:55;4.47;;;1.83;;
51184;SDS011;37248;59.350;18.050;2023-02-23T08:29:20;3.63;;;2.00;;
51184;SDS011;37248;59.350;18.050;2023-02-23T08:31:46;3.57;;;1.90;;
51184;SDS011;37248;59.350;18.050;2023-02-23T08:34:11;5.83;;;2.20;;
51184;SDS011;37248;59.350;18.050;2023-02-23T08:36:37;11.25;;;2.13;;
51184;SDS011;37248;59.350;18.050;2023-02-23T08:39:03;11.25;;;2.40;;
51184;SDS011;37248;59.350;18.050;2023-02-23T08:41:30;15.60;;;2.70;;
51184;SDS011;37248;59.350;18.050;2023-02-23T08:43:56;12.70;;;2.30;;
51184;SDS011;37248;59.350;18.050;2023-02-23T08:46:22;17.20;;;2.20;;
51184;SDS011;37248;59.350;18.050;2023-02-23T08:48:47;12.10;;;2.30;;
51184;SDS011;37248;59.350;18.050;2023-02-23T08:51:12;9.27;;;2.00;;
51184;SDS011;37248;59.350;18.050;2023-02-23T08:53:40;5.07;;;2.00;;
51184;SDS011;37248;59.350;18.050;2023-02-23T08:56:06;13.53;;;2.50;;
51184;SDS011;37248;59.350;18.050;2023-02-23T08:58:32;12.05;;;2.40;;
51184;SDS011;37248;59.350;18.050;2023-02-23T09:00:58;14.70;;;2.23;;
51184;SDS011;37248;59.350;18.050;2023-02-23T09:03:24;18.90;;;2.70;;
51184;SDS011;37248;59.350;18.050;2023-02-23T09:05:54;18.83;;;2.60;;
51184;SDS011;37248;59.350;18.050;2023-02-23T09:08:20;20.92;;;2.90;;
51184;SDS011;37248;59.350;18.050;2023-02-23T09:10:45;22.77;;;3.10;;
51184;SDS011;37248;59.350;18.050;2023-02-23T09:13:11;20.65;;;2.40;;
51184;SDS011;37248;59.350;18.050;2023-02-23T09:15:37;14.07;;;2.77;;
51184;SDS011;37248;59.350;18.050;2023-02-23T09:18:03;17.27;;;2.65;;
51184;SDS011;37248;59.350;18.050;2023-02-23T09:20:29;25.17;;;2.70;;
51184;SDS011;37248;59.350;18.050;2023-02-23T09:22:54;15.80;;;2.83;;
51184;SDS011;37248;59.350;18.050;2023-02-23T09:25:19;11.32;;;2.35;;
51184;SDS011;37248;59.350;18.050;2023-02-23T09:27:47;7.40;;;1.95;;
51184;SDS011;37248;59.350;18.050;2023-02-23T09:30:12;14.17;;;2.00;;
51184;SDS011;37248;59.350;18.050;2023-02-23T09:32:42;11.02;;;2.10;;
51184;SDS011;37248;59.350;18.050;2023-02-23T09:35:07;10.10;;;2.00;;
51184;SDS011;37248;59.350;18.050;2023-02-23T09:37:33;8.33;;;2.40;;
51184;SDS011;37248;59.350;18.050;2023-02-23T09:39:58;8.37;;;2.00;;
51184;SDS011;37248;59.350;18.050;2023-02-23T09:42:38;6.63;;;2.13;;
51184;SDS011;37248;59.350;18.050;2023-02-23T09:50:29;4.10;;;1.87;;
51184;SDS011;37248;59.350;18.050;2023-02-23T09:52:57;7.13;;;2.10;;
51184;SDS011;37248;59.350;18.050;2023-02-23T09:55:23;13.75;;;2.03;;
51184;SDS011;37248;59.350;18.050;2023-02-23T09:57:49;8.23;;;1.90;;
51184;SDS011;37248;59.350;18.050;2023-02-23T10:00:16;12.63;;;2.20;;
51184;SDS011;37248;59.350;18.050;2023-02-23T10:05:28;56.08;;;5.07;;
51184;SDS011;37248;59.350;18.050;2023-02-23T10:08:05;50.73;;;4.33;;
51184;SDS011;37248;59.350;18.050;2023-02-23T10:10:46;46.40;;;4.65;;
51184;SDS011;37248;59.350;18.050;2023-02-23T10:21:05;32.08;;;3.53;;
51184;SDS011;37248;59.350;18.050;2023-02-23T10:23:35;25.80;;;3.03;;
51184;SDS011;37248;59.350;18.050;2023-02-23T10:26:04;34.67;;;2.97;;
51184;SDS011;37248;59.350;18.050;2023-02-23T10:28:34;17.95;;;3.25;;
51184;SDS011;37248;59.350;18.050;2023-02-23T10:30:59;30.08;;;3.25;;
51184;SDS011;37248;59.350;18.050;2023-02-23T10:35:57;21.20;;;3.42;;
51184;SDS011;37248;59.350;18.050;2023-02-23T10:38:24;26.97;;;2.57;;
51184;SDS011;37248;59.350;18.050;2023-02-23T10:40:50;22.63;;;2.77;;
51184;SDS011;37248;59.350;18.050;2023-02-23T10:43:17;18.30;;;2.80;;
51184;SDS011;37248;59.350;18.050;2023-02-23T10:45:44;13.37;;;2.40;;
51184;SDS011;37248;59.350;18.050;2023-02-23T10:48:13;25.48;;;3.10;;
51184;SDS011;37248;59.350;18.050;2023-02-23T10:50:40;19.13;;;2.55;;
51184;SDS011;37248;59.350;18.050;2023-02-23T10:56:07;17.42;;;2.40;;
51184;SDS011;37248;59.350;18.050;2023-02-23T11:01:06;19.93;;;2.20;;
51184;SDS011;37248;59.350;18.050;2023-02-23T11:05:56;10.77;;;1.90;;
51184;SDS011;37248;59.350;18.050;2023-02-23T11:08:23;11.37;;;2.20;;
51184;SDS011;37248;59.350;18.050;2023-02-23T11:13:27;9.07;;;2.03;;
51184;SDS011;37248;59.350;18.050;2023-02-23T11:16:03;10.80;;;2.10;;
51184;SDS011;37248;59.350;18.050;2023-02-23T11:18:29;9.63;;;2.05;;
51184;SDS011;37248;59.350;18.050;2023-02-23T11:20:55;10.43;;;1.90;;
51184;SDS011;37248;59.350;18.050;2023-02-23T11:23:22;7.32;;;1.90;;
51184;SDS011;37248;59.350;18.050;2023-02-23T11:25:48;11.60;;;2.10;;
51184;SDS011;37248;59.350;18.050;2023-02-23T11:28:20;7.70;;;2.10;;
51184;SDS011;37248;59.350;18.050;2023-02-23T11:30:46;6.97;;;1.83;;
51184;SDS011;37248;59.350;18.050;2023-02-23T11:33:14;7.37;;;2.20;;
51184;SDS011;37248;59.350;18.050;2023-02-23T11:35:40;7.43;;;1.73;;
51184;SDS011;37248;59.350;18.050;2023-02-23T11:38:15;10.90;;;2.10;;
51184;SDS011;37248;59.350;18.050;2023-02-23T11:40:56;6.00;;;1.98;;
51184;SDS011;37248;59.350;18.050;2023-02-23T11:43:22;4.60;;;1.58;;
51184;SDS011;37248;59.350;18.050;2023-02-23T11:45:49;4.63;;;1.60;;
51184;SDS011;37248;59.350;18.050;2023-02-23T11:50:49;4.93;;;1.50;;
51184;SDS011;37248;59.350;18.050;2023-02-23T11:55:57;6.97;;;1.67;;
51184;SDS011;37248;59.350;18.050;2023-02-23T12:01:02;3.72;;;1.58;;
51184;SDS011;37248;59.350;18.050;2023-02-23T12:03:29;4.75;;;1.42;;
51184;SDS011;37248;59.350;18.050;2023-02-23T12:05:55;6.50;;;1.80;;
51184;SDS011;37248;59.350;18.050;2023-02-23T12:10:54;8.15;;;1.55;;
51184;SDS011;37248;59.350;18.050;2023-02-23T12:18:29;3.97;;;1.63;;
51184;SDS011;37248;59.350;18.050;2023-02-23T12:20:59;3.30;;;1.50;;
51184;SDS011;37248;59.350;18.050;2023-02-23T12:23:26;5.40;;;1.67;;
51184;SDS011;37248;59.350;18.050;2023-02-23T12:28:19;2.40;;;1.40;;
51184;SDS011;37248;59.350;18.050;2023-02-23T12:30:50;4.03;;;1.50;;
51184;SDS011;37248;59.350;18.050;2023-02-23T12:33:24;4.25;;;1.48;;
51184;SDS011;37248;59.350;18.050;2023-02-23T12:38:46;5.03;;;1.63;;
51184;SDS011;37248;59.350;18.050;2023-02-23T12:41:15;2.53;;;1.15;;
51184;SDS011;37248;59.350;18.050;2023-02-23T12:46:38;3.58;;;1.50;;
51184;SDS011;37248;59.350;18.050;2023-02-23T12:51:34;4.68;;;1.70;;
51184;SDS011;37248;59.350;18.050;2023-02-23T12:54:01;3.25;;;1.40;;
51184;SDS011;37248;59.350;18.050;2023-02-23T12:59:13;3.55;;;1.45;;
51184;SDS011;37248;59.350;18.050;2023-02-23T13:01:51;2.95;;;1.63;;
51184;SDS011;37248;59.350;18.050;2023-02-23T13:06:57;1.67;;;1.30;;
51184;SDS011;37248;59.350;18.050;2023-02-23T13:12:15;1.83;;;1.27;;
51184;SDS011;37248;59.350;18.050;2023-02-23T13:19:57;3.03;;;1.50;;
51184;SDS011;37248;59.350;18.050;2023-02-23T13:22:27;3.40;;;1.48;;
51184;SDS011;37248;59.350;18.050;2023-02-23T13:24:54;2.55;;;1.40;;
51184;SDS011;37248;59.350;18.050;2023-02-23T13:27:26;2.88;;;1.50;;
51184;SDS011;37248;59.350;18.050;2023-02-23T13:29:53;2.55;;;1.40;;
51184;SDS011;37248;59.350;18.050;2023-02-23T13:32:28;3.33;;;1.50;;
51184;SDS011;37248;59.350;18.050;2023-02-23T13:35:05;2.10;;;1.27;;
51184;SDS011;37248;59.350;18.050;2023-02-23T13:37:40;3.93;;;1.40;;
51184;SDS011;37248;59.350;18.050;2023-02-23T13:40:20;2.40;;;1.30;;
51184;SDS011;37248;59.350;18.050;2023-02-23T13:48:15;2.43;;;1.27;;
51184;SDS011;37248;59.350;18.050;2023-02-23T13:53:27;1.70;;;1.17;;
51184;SDS011;37248;59.350;18.050;2023-02-23T13:55:57;2.15;;;1.38;;
51184;SDS011;37248;59.350;18.050;2023-02-23T13:58:27;1.90;;;1.15;;
51184;SDS011;37248;59.350;18.050;2023-02-23T14:01:02;2.55;;;1.38;;
51184;SDS011;37248;59.350;18.050;2023-02-23T14:03:28;1.48;;;1.20;;
51184;SDS011;37248;59.350;18.050;2023-02-23T14:05:55;5.07;;;1.40;;
51184;SDS011;37248;59.350;18.050;2023-02-23T14:08:30;2.00;;;1.38;;
51184;SDS011;37248;59.350;18.050;2023-02-23T14:10:56;1.80;;;1.40;;
51184;SDS011;37248;59.350;18.050;2023-02-23T14:16:06;2.03;;;1.20;;
51184;SDS011;37248;59.350;18.050;2023-02-23T14:18:32;2.53;;;1.30;;
51184;SDS011;37248;59.350;18.050;2023-02-23T14:26:14;1.83;;;1.10;;
51184;SDS011;37248;59.350;18.050;2023-02-23T14:38:59;1.55;;;1.13;;
51184;SDS011;37248;59.350;18.050;2023-02-23T14:43:53;2.10;;;1.20;;
51184;SDS011;37248;59.350;18.050;2023-02-23T14:46:20;1.83;;;1.25;;
51184;SDS011;37248;59.350;18.050;2023-02-23T14:53:57;2.83;;;1.35;;
51184;SDS011;37248;59.350;18.050;2023-02-23T14:56:22;2.30;;;1.25;;
51184;SDS011;37248;59.350;18.050;2023-02-23T14:58:49;1.80;;;1.35;;
51184;SDS011;37248;59.350;18.050;2023-02-23T15:01:30;1.60;;;1.20;;
51184;SDS011;37248;59.350;18.050;2023-02-23T15:04:09;1.88;;;1.15;;
51184;SDS011;37248;59.350;18.050;2023-02-23T15:06:35;1.48;;;1.00;;
51184;SDS011;37248;59.350;18.050;2023-02-23T15:09:00;2.03;;;1.13;;
51184;SDS011;37248;59.350;18.050;2023-02-23T15:11:26;2.00;;;1.40;;
51184;SDS011;37248;59.350;18.050;2023-02-23T15:13:52;1.88;;;1.38;;
51184;SDS011;37248;59.350;18.050;2023-02-23T15:16:32;1.45;;;1.05;;
51184;SDS011;37248;59.350;18.050;2023-02-23T15:18:59;2.13;;;1.47;;
51184;SDS011;37248;59.350;18.050;2023-02-23T15:21:25;1.52;;;1.05;;
51184;SDS011;37248;59.350;18.050;2023-02-23T15:23:53;1.92;;;1.10;;
51184;SDS011;37248;59.350;18.050;2023-02-23T15:28:50;3.43;;;1.10;;
51184;SDS011;37248;59.350;18.050;2023-02-23T15:31:15;1.57;;;1.30;;
51184;SDS011;37248;59.350;18.050;2023-02-23T15:33:41;1.93;;;1.30;;
51184;SDS011;37248;59.350;18.050;2023-02-23T15:36:08;2.77;;;1.30;;
51184;SDS011;37248;59.350;18.050;2023-02-23T15:38:44;4.38;;;1.20;;
51184;SDS011;37248;59.350;18.050;2023-02-23T15:41:18;3.00;;;1.20;;
51184;SDS011;37248;59.350;18.050;2023-02-23T15:43:45;8.27;;;1.55;;
51184;SDS011;37248;59.350;18.050;2023-02-23T15:46:11;8.40;;;1.50;;
51184;SDS011;37248;59.350;18.050;2023-02-23T15:48:41;3.70;;;1.40;;
51184;SDS011;37248;59.350;18.050;2023-02-23T15:51:13;4.13;;;1.30;;
51184;SDS011;37248;59.350;18.050;2023-02-23T15:53:44;7.93;;;1.55;;
51184;SDS011;37248;59.350;18.050;2023-02-23T15:56:14;4.00;;;1.30;;
51184;SDS011;37248;59.350;18.050;2023-02-23T15:58:41;3.38;;;1.50;;
51184;SDS011;37248;59.350;18.050;2023-02-23T16:01:13;6.35;;;1.42;;
51184;SDS011;37248;59.350;18.050;2023-02-23T16:03:44;6.03;;;1.20;;
51184;SDS011;37248;59.350;18.050;2023-02-23T16:06:24;4.72;;;1.58;;
51184;SDS011;37248;59.350;18.050;2023-02-23T16:08:56;3.13;;;1.20;;
51184;SDS011;37248;59.350;18.050;2023-02-23T16:11:22;3.42;;;1.40;;
51184;SDS011;37248;59.350;18.050;2023-02-23T16:13:48;4.77;;;1.50;;
51184;SDS011;37248;59.350;18.050;2023-02-23T16:16:15;4.53;;;1.40;;
51184;SDS011;37248;59.350;18.050;2023-02-23T16:18:44;2.00;;;1.20;;
51184;SDS011;37248;59.350;18.050;2023-02-23T16:21:13;3.00;;;1.25;;
51184;SDS011;37248;59.350;18.050;2023-02-23T16:23:41;4.28;;;1.40;;
51184;SDS011;37248;59.350;18.050;2023-02-23T16:26:09;1.80;;;1.23;;
51184;SDS011;37248;59.350;18.050;2023-02-23T16:28:35;2.53;;;1.37;;
51184;SDS011;37248;59.350;18.050;2023-02-23T16:31:05;4.40;;;1.20;;
51184;SDS011;37248;59.350;18.050;2023-02-23T16:36:12;1.80;;;1.10;;
51184;SDS011;37248;59.350;18.050;2023-02-23T16:41:04;3.63;;;1.33;;
51184;SDS011;37248;59.350;18.050;2023-02-23T16:43:29;2.40;;;1.10;;
51184;SDS011;37248;59.350;18.050;2023-02-23T16:45:56;6.28;;;1.33;;
51184;SDS011;37248;59.350;18.050;2023-02-23T16:48:21;2.77;;;1.10;;
51184;SDS011;37248;59.350;18.050;2023-02-23T16:50:48;4.95;;;1.25;;
51184;SDS011;37248;59.350;18.050;2023-02-23T16:53:14;1.85;;;1.10;;
51184;SDS011;37248;59.350;18.050;2023-02-23T16:55:53;2.90;;;1.10;;
51184;SDS011;37248;59.350;18.050;2023-02-23T16:58:22;4.70;;;1.20;;
51184;SDS011;37248;59.350;18.050;2023-02-23T17:00:49;5.35;;;1.10;;
51184;SDS011;37248;59.350;18.050;2023-02-23T17:05:47;6.67;;;1.47;;
51184;SDS011;37248;59.350;18.050;2023-02-23T17:08:13;3.43;;;1.40;;
51184;SDS011;37248;59.350;18.050;2023-02-23T17:10:39;12.00;;;1.73;;
51184;SDS011;37248;59.350;18.050;2023-02-23T17:13:16;7.45;;;1.33;;
51184;SDS011;37248;59.350;18.050;2023-02-23T17:15:42;6.20;;;1.83;;
51184;SDS011;37248;59.350;18.050;2023-02-23T17:18:11;12.43;;;1.73;;
51184;SDS011;37248;59.350;18.050;2023-02-23T17:20:37;11.60;;;2.00;;